createdAt,value
2019-04-25T00:00:56.238Z,997.1
2019-04-25T00:02:08.706Z,997.1
2019-04-25T00:03:20.626Z,997
2019-04-25T00:04:32.875Z,996.9
2019-04-25T00:05:44.943Z,996.9
2019-04-25T00:06:57.296Z,996.9
2019-04-25T00:08:09.442Z,996.9
2019-04-25T00:09:21.625Z,996.9
2019-04-25T00:10:33.802Z,996.9
2019-04-25T00:11:46.026Z,996.9
2019-04-25T00:12:58.091Z,996.8
2019-04-25T00:14:10.474Z,996.8
2019-04-25T00:15:22.573Z,996.8
2019-04-25T00:16:34.916Z,996.8
2019-04-25T00:17:46.905Z,996.9
2019-04-25T00:18:59.186Z,996.9
2019-04-25T00:20:11.309Z,996.9
2019-04-25T00:21:23.551Z,996.9
2019-04-25T00:22:35.750Z,996.8
2019-04-25T00:23:47.933Z,996.8
2019-04-25T00:25:00.053Z,996.8
2019-04-25T00:26:12.616Z,996.7
2019-04-25T00:27:24.431Z,996.7
2019-04-25T00:28:36.770Z,996.7
2019-04-25T00:29:48.827Z,996.7
2019-04-25T00:31:01.146Z,996.7
2019-04-25T00:32:13.227Z,996.8
2019-04-25T00:33:25.505Z,996.8
2019-04-25T00:34:37.676Z,996.8
2019-04-25T00:35:49.856Z,996.8
2019-04-25T00:37:01.983Z,996.8
2019-04-25T00:38:14.327Z,996.8
2019-04-25T00:39:26.541Z,996.8
2019-04-25T00:40:38.611Z,996.8
2019-04-25T00:41:50.781Z,996.8
2019-04-25T00:43:03.029Z,996.8
2019-04-25T00:44:15.163Z,996.8
2019-04-25T00:45:27.453Z,996.8
2019-04-25T00:46:39.606Z,996.9
2019-04-25T00:47:51.776Z,996.9
2019-04-25T00:49:03.926Z,996.9
2019-04-25T00:50:16.186Z,997
2019-04-25T00:51:28.309Z,997
2019-04-25T00:52:40.590Z,996.9
2019-04-25T00:53:52.687Z,996.9
2019-04-25T00:55:04.875Z,996.8
2019-04-25T00:56:17.086Z,997
2019-04-25T00:57:29.347Z,997
2019-04-25T00:58:41.631Z,997
2019-04-25T00:59:53.715Z,997.1
2019-04-25T01:01:11.316Z,997.1
2019-04-25T01:02:18.155Z,997.1
2019-04-25T01:03:30.220Z,997.1
2019-04-25T01:04:42.527Z,997.1
2019-04-25T01:05:54.693Z,997.2
2019-04-25T01:07:06.939Z,997.2
2019-04-25T01:08:19.009Z,997.3
2019-04-25T01:09:31.198Z,997.3
2019-04-25T01:10:43.569Z,997.2
2019-04-25T01:11:55.744Z,997.3
2019-04-25T01:13:07.848Z,997.3
2019-04-25T01:14:20.119Z,997.3
2019-04-25T01:15:32.209Z,997.4
2019-04-25T01:16:44.449Z,997.5
2019-04-25T01:17:56.545Z,997.5
2019-04-25T01:19:08.970Z,997.5
2019-04-25T01:20:20.968Z,997.3
2019-04-25T01:21:33.213Z,997.3
2019-04-25T01:22:45.443Z,997.3
2019-04-25T01:23:57.702Z,997.4
2019-04-25T01:25:09.753Z,997.4
2019-04-25T01:26:22.015Z,997.5
2019-04-25T01:27:34.191Z,997.4
2019-04-25T01:28:46.370Z,997.4
2019-04-25T01:30:05.120Z,997.5
2019-04-25T01:31:10.863Z,997.4
2019-04-25T01:32:22.985Z,997.5
2019-04-25T01:33:35.265Z,997.5
2019-04-25T01:34:47.387Z,997.5
2019-04-25T01:35:59.644Z,997.4
2019-04-25T01:37:11.701Z,997.4
2019-04-25T01:38:23.940Z,997.4
2019-04-25T01:39:36.363Z,997.5
2019-04-25T01:40:48.380Z,997.4
2019-04-25T01:42:04.100Z,997.3
2019-04-25T01:43:12.681Z,997.4
2019-04-25T01:44:24.919Z,997.4
2019-04-25T01:45:37.708Z,997.3
2019-04-25T01:46:49.351Z,997.4
2019-04-25T01:48:01.462Z,997.3
2019-04-25T01:49:13.593Z,997.4
2019-04-25T01:50:25.881Z,997.3
2019-04-25T01:51:38.074Z,997.4
2019-04-25T01:52:50.357Z,997.3
2019-04-25T01:54:02.406Z,997.4
2019-04-25T01:55:14.726Z,997.3
2019-04-25T01:56:28.523Z,997.4
2019-04-25T01:57:39.013Z,997.3
2019-04-25T01:58:51.290Z,997.4
2019-04-25T02:00:03.402Z,997.4
2019-04-25T02:01:20.349Z,997.3
2019-04-25T02:02:27.859Z,997.3
2019-04-25T02:03:39.918Z,997.3
2019-04-25T02:04:52.209Z,997.3
2019-04-25T02:06:04.452Z,997.3
2019-04-25T02:07:16.557Z,997.3
2019-04-25T02:08:28.712Z,997.4
2019-04-25T02:09:40.968Z,997.5
2019-04-25T02:10:53.279Z,997.5
2019-04-25T02:12:05.454Z,997.5
2019-04-25T02:13:17.466Z,997.6
2019-04-25T02:14:29.747Z,997.6
2019-04-25T02:15:42.052Z,997.6
2019-04-25T02:16:54.111Z,997.6
2019-04-25T02:18:06.314Z,997.5
2019-04-25T02:19:18.551Z,997.5
2019-04-25T02:20:30.629Z,997.4
2019-04-25T02:21:42.841Z,997.5
2019-04-25T02:22:55.146Z,997.5
2019-04-25T02:24:07.261Z,997.6
2019-04-25T02:25:19.428Z,997.6
2019-04-25T02:26:31.708Z,997.6
2019-04-25T02:27:43.888Z,997.6
2019-04-25T02:28:55.981Z,997.6
2019-04-25T02:30:08.187Z,997.6
2019-04-25T02:31:20.537Z,997.6
2019-04-25T02:32:32.570Z,997.6
2019-04-25T02:33:44.856Z,997.7
2019-04-25T02:34:57.040Z,997.8
2019-04-25T02:36:09.295Z,997.7
2019-04-25T02:37:21.416Z,997.7
2019-04-25T02:38:33.626Z,997.8
2019-04-25T02:39:45.751Z,997.8
2019-04-25T02:40:57.992Z,997.7
2019-04-25T02:42:10.182Z,997.6
2019-04-25T02:43:23.119Z,997.6
2019-04-25T02:44:34.533Z,997.8
2019-04-25T02:45:46.792Z,997.7
2019-04-25T02:46:59.000Z,997.7
2019-04-25T02:48:11.139Z,997.7
2019-04-25T02:49:23.356Z,997.6
2019-04-25T02:50:35.554Z,997.8
2019-04-25T02:51:47.681Z,997.6
2019-04-25T02:52:59.977Z,997.6
2019-04-25T02:54:12.139Z,997.6
2019-04-25T02:55:24.392Z,997.6
2019-04-25T02:56:36.603Z,997.5
2019-04-25T02:57:48.831Z,997.6
2019-04-25T02:59:00.978Z,997.5
2019-04-25T03:00:13.191Z,997.5
2019-04-25T03:01:25.232Z,997.5
2019-04-25T03:02:37.513Z,997.5
2019-04-25T03:03:49.688Z,997.5
2019-04-25T03:05:02.024Z,997.6
2019-04-25T03:06:14.382Z,997.5
2019-04-25T03:07:26.281Z,997.5
2019-04-25T03:08:38.490Z,997.6
2019-04-25T03:09:50.824Z,997.6
2019-04-25T03:11:02.879Z,997.6
2019-04-25T03:12:15.097Z,997.6
2019-04-25T03:13:27.258Z,997.6
2019-04-25T03:14:39.447Z,997.6
2019-04-25T03:15:51.629Z,997.6
2019-04-25T03:17:03.791Z,997.5
2019-04-25T03:18:15.993Z,997.5
2019-04-25T03:19:28.219Z,997.6
2019-04-25T03:20:40.341Z,997.6
2019-04-25T03:21:52.621Z,997.6
2019-04-25T03:23:04.794Z,997.5
2019-04-25T03:24:17.043Z,997.6
2019-04-25T03:25:29.098Z,997.7
2019-04-25T03:26:41.457Z,997.6
2019-04-25T03:27:53.489Z,997.6
2019-04-25T03:29:05.755Z,997.6
2019-04-25T03:30:17.929Z,997.5
2019-04-25T03:31:30.131Z,997.5
2019-04-25T03:32:42.265Z,997.5
2019-04-25T03:33:54.760Z,997.5
2019-04-25T03:35:06.770Z,997.5
2019-04-25T03:36:18.975Z,997.5
2019-04-25T03:37:31.139Z,997.6
2019-04-25T03:38:43.402Z,997.6
2019-04-25T03:39:55.498Z,997.6
2019-04-25T03:41:07.742Z,997.6
2019-04-25T03:42:19.797Z,997.6
2019-04-25T03:43:32.371Z,997.6
2019-04-25T03:44:44.206Z,997.7
2019-04-25T03:45:56.510Z,997.6
2019-04-25T03:47:08.748Z,997.8
2019-04-25T03:49:33.068Z,997.8
2019-04-25T03:51:57.435Z,997.8
2019-04-25T03:53:09.629Z,997.8
2019-04-25T03:54:21.775Z,997.8
2019-04-25T03:55:33.989Z,997.7
2019-04-25T03:56:46.120Z,997.8
2019-04-25T03:57:58.385Z,997.8
2019-04-25T03:59:12.053Z,997.8
2019-04-25T04:00:22.982Z,998
2019-04-25T04:01:34.890Z,997.7
2019-04-25T04:02:47.190Z,997.9
2019-04-25T04:03:59.390Z,997.8
2019-04-25T04:05:11.755Z,997.7
2019-04-25T04:06:23.777Z,997.7
2019-04-25T04:07:36.012Z,997.9
2019-04-25T04:08:48.211Z,997.8
2019-04-25T04:10:00.424Z,997.7
2019-04-25T04:11:12.553Z,997.7
2019-04-25T04:12:24.697Z,997.8
2019-04-25T04:13:37.105Z,997.8
2019-04-25T04:14:49.121Z,997.8
2019-04-25T04:16:01.294Z,997.7
2019-04-25T04:17:13.495Z,997.7
2019-04-25T04:18:25.632Z,997.8
2019-04-25T04:19:37.899Z,997.9
2019-04-25T04:20:50.125Z,997.8
2019-04-25T04:22:02.329Z,997.9
2019-04-25T04:23:14.500Z,997.9
2019-04-25T04:24:26.849Z,997.9
2019-04-25T04:25:38.949Z,997.9
2019-04-25T04:26:51.052Z,997.9
2019-04-25T04:28:03.230Z,998
2019-04-25T04:29:15.460Z,997.9
2019-04-25T04:30:27.601Z,998
2019-04-25T04:31:39.860Z,997.9
2019-04-25T04:32:51.978Z,998
2019-04-25T04:34:04.246Z,998
2019-04-25T04:35:16.458Z,997.9
2019-04-25T04:36:28.588Z,998
2019-04-25T04:37:40.812Z,998
2019-04-25T04:38:53.017Z,998.1
2019-04-25T04:40:05.283Z,998
2019-04-25T04:41:17.437Z,998
2019-04-25T04:42:29.474Z,998
2019-04-25T04:43:41.728Z,997.9
2019-04-25T04:44:53.925Z,997.9
2019-04-25T04:46:06.158Z,998.1
2019-04-25T04:47:18.521Z,998
2019-04-25T04:48:30.558Z,998
2019-04-25T04:49:42.761Z,998.1
2019-04-25T04:50:54.913Z,997.9
2019-04-25T04:52:07.130Z,998
2019-04-25T04:53:19.315Z,997.9
2019-04-25T04:54:31.574Z,997.9
2019-04-25T04:55:44.122Z,997.9
2019-04-25T04:56:55.824Z,998
2019-04-25T04:58:08.102Z,998
2019-04-25T04:59:20.711Z,998
2019-04-25T05:00:32.480Z,998
2019-04-25T05:01:44.694Z,998
2019-04-25T05:02:56.924Z,998.1
2019-04-25T05:04:09.060Z,998
2019-04-25T05:05:21.294Z,997.9
2019-04-25T05:06:33.404Z,997.9
2019-04-25T05:07:45.622Z,998.2
2019-04-25T05:08:57.738Z,998
2019-04-25T05:10:10.038Z,997.9
2019-04-25T05:11:22.228Z,997.9
2019-04-25T05:12:34.424Z,998
2019-04-25T05:13:46.658Z,998
2019-04-25T05:14:58.925Z,997.8
2019-04-25T05:16:10.923Z,997.8
2019-04-25T05:17:23.174Z,997.9
2019-04-25T05:18:35.480Z,997.9
2019-04-25T05:19:47.605Z,997.9
2019-04-25T05:20:59.724Z,997.8
2019-04-25T05:22:11.998Z,997.8
2019-04-25T05:23:24.562Z,997.9
2019-04-25T05:24:36.423Z,997.9
2019-04-25T05:25:48.688Z,998
2019-04-25T05:27:00.844Z,997.9
2019-04-25T05:28:12.889Z,997.9
2019-04-25T05:29:25.130Z,998
2019-04-25T05:30:37.274Z,997.7
2019-04-25T05:31:49.528Z,997.6
2019-04-25T05:33:01.645Z,997.7
2019-04-25T05:34:13.921Z,997.7
2019-04-25T05:35:26.174Z,997.7
2019-04-25T05:36:38.290Z,997.7
2019-04-25T05:37:50.479Z,997.8
2019-04-25T05:39:02.731Z,997.8
2019-04-25T05:40:14.790Z,997.9
2019-04-25T05:41:26.975Z,998.1
2019-04-25T05:42:39.252Z,997.9
2019-04-25T05:43:51.597Z,998.1
2019-04-25T05:45:03.603Z,998.1
2019-04-25T05:46:16.093Z,998.1
2019-04-25T05:47:28.043Z,998.1
2019-04-25T05:48:40.137Z,998.2
2019-04-25T05:49:52.463Z,998.1
2019-04-25T05:51:04.586Z,998.1
2019-04-25T05:52:16.853Z,998.1
2019-04-25T05:53:28.994Z,998.1
2019-04-25T05:54:41.123Z,998.1
2019-04-25T05:57:05.614Z,998.4
2019-04-25T05:58:17.825Z,998
2019-04-25T05:59:29.990Z,998.1
2019-04-25T06:01:54.316Z,998.2
2019-04-25T06:03:06.986Z,998.3
2019-04-25T06:04:18.719Z,998.5
2019-04-25T06:05:30.925Z,998.6
2019-04-25T06:06:43.193Z,998.5
2019-04-25T06:07:55.362Z,998.6
2019-04-25T06:09:07.425Z,998.6
2019-04-25T06:10:19.812Z,998.6
2019-04-25T06:11:36.158Z,998.7
2019-04-25T06:12:44.104Z,998.5
2019-04-25T06:13:56.227Z,998.6
2019-04-25T06:15:08.498Z,998.6
2019-04-25T06:16:20.723Z,998.6
2019-04-25T06:17:32.886Z,998.7
2019-04-25T06:18:45.002Z,998.8
2019-04-25T06:19:57.248Z,998.6
2019-04-25T06:21:09.378Z,998.5
2019-04-25T06:22:21.967Z,998.5
2019-04-25T06:23:33.849Z,998.4
2019-04-25T06:24:46.070Z,998.6
2019-04-25T06:25:58.279Z,998.4
2019-04-25T06:27:10.425Z,998.5
2019-04-25T06:28:22.960Z,998.5
2019-04-25T06:29:34.823Z,998.4
2019-04-25T06:30:49.951Z,998.6
2019-04-25T06:31:59.223Z,998.7
2019-04-25T06:33:11.350Z,998.4
2019-04-25T06:34:23.650Z,998.4
2019-04-25T06:35:35.798Z,998.5
2019-04-25T06:36:47.968Z,998.4
2019-04-25T06:38:00.126Z,998.5
2019-04-25T06:39:12.407Z,998.5
2019-04-25T06:40:24.523Z,998.6
2019-04-25T06:41:36.719Z,998.6
2019-04-25T06:42:48.878Z,998.5
2019-04-25T06:44:01.149Z,998.5
2019-04-25T06:45:13.281Z,998.5
2019-04-25T06:46:25.444Z,998.7
2019-04-25T06:47:37.715Z,998.7
2019-04-25T06:48:49.824Z,998.7
2019-04-25T06:50:02.029Z,998.9
2019-04-25T06:51:14.495Z,998.8
2019-04-25T06:52:26.636Z,998.7
2019-04-25T06:53:38.704Z,998.7
2019-04-25T06:54:50.815Z,998.6
2019-04-25T06:56:05.397Z,998.6
2019-04-25T06:57:17.955Z,998.7
2019-04-25T06:58:27.498Z,998.9
2019-04-25T06:59:39.683Z,998.8
2019-04-25T07:00:51.801Z,998.9
2019-04-25T07:02:05.243Z,998.7
2019-04-25T07:03:19.375Z,998.8
2019-04-25T07:04:33.553Z,998.9
2019-04-25T07:05:40.741Z,998.9
2019-04-25T07:06:52.794Z,998.8
2019-04-25T07:08:05.903Z,998.8
2019-04-25T07:09:17.160Z,998.8
2019-04-25T07:10:29.373Z,998.8
2019-04-25T07:11:41.808Z,998.9
2019-04-25T07:12:53.920Z,998.8
2019-04-25T07:14:06.006Z,998.8
2019-04-25T07:15:18.097Z,998.9
2019-04-25T07:17:42.577Z,998.9
2019-04-25T07:18:54.760Z,998.9
2019-04-25T07:20:07.077Z,998.9
2019-04-25T07:21:19.066Z,998.9
2019-04-25T07:22:31.342Z,998.8
2019-04-25T07:24:55.734Z,998.9
2019-04-25T07:27:20.224Z,998.9
2019-04-25T07:28:32.269Z,998.8
2019-04-25T07:29:47.395Z,998.8
2019-04-25T07:30:56.623Z,998.9
2019-04-25T07:32:08.900Z,999
2019-04-25T07:33:21.145Z,999
2019-04-25T07:34:33.246Z,999
2019-04-25T07:35:45.493Z,999
2019-04-25T07:36:57.787Z,999.1
2019-04-25T07:38:09.812Z,999.3
2019-04-25T07:39:22.035Z,999.1
2019-04-25T07:40:34.365Z,999.1
2019-04-25T07:41:46.530Z,999.1
2019-04-25T07:42:58.590Z,999.2
2019-04-25T07:44:11.485Z,999.1
2019-04-25T07:45:22.958Z,999.1
2019-04-25T07:46:35.234Z,999
2019-04-25T07:47:47.450Z,999.2
2019-04-25T07:48:59.540Z,999.1
2019-04-25T07:50:11.845Z,999.3
2019-04-25T07:51:24.022Z,999.4
2019-04-25T07:52:36.217Z,999.2
2019-04-25T07:53:48.393Z,999.1
2019-04-25T07:55:00.528Z,999.2
2019-04-25T07:57:25.087Z,999.4
2019-04-25T07:58:37.193Z,999.3
2019-04-25T07:59:49.397Z,999.4
2019-04-25T08:01:01.494Z,999.3
2019-04-25T08:02:13.680Z,999.2
2019-04-25T08:03:25.975Z,999.3
2019-04-25T08:04:38.101Z,999.3
2019-04-25T08:05:50.524Z,999.2
2019-04-25T08:07:02.526Z,999.3
2019-04-25T08:08:14.787Z,999.2
2019-04-25T08:09:26.949Z,999.5
2019-04-25T08:10:39.185Z,999.2
2019-04-25T08:11:51.339Z,999.4
2019-04-25T08:13:04.605Z,999.4
2019-04-25T08:14:15.749Z,999.4
2019-04-25T08:15:27.933Z,999.3
2019-04-25T08:16:40.026Z,999.4
2019-04-25T08:17:52.632Z,999.4
2019-04-25T08:19:04.462Z,999.3
2019-04-25T08:20:16.731Z,999.4
2019-04-25T08:21:29.080Z,999.4
2019-04-25T08:22:41.129Z,999.6
2019-04-25T08:23:53.408Z,999.5
2019-04-25T08:25:05.589Z,999.6
2019-04-25T08:26:17.681Z,999.7
2019-04-25T08:27:29.812Z,999.6
2019-04-25T08:28:41.999Z,999.6
2019-04-25T08:29:54.291Z,999.5
2019-04-25T08:31:06.447Z,999.6
2019-04-25T08:32:18.681Z,999.4
2019-04-25T08:33:31.042Z,999.6
2019-04-25T08:34:43.037Z,999.4
2019-04-25T08:35:55.285Z,999.6
2019-04-25T08:37:07.469Z,999.6
2019-04-25T08:38:19.532Z,999.5
2019-04-25T08:39:31.878Z,999.4
2019-04-25T08:40:44.094Z,999.8
2019-04-25T08:41:56.202Z,999.4
2019-04-25T08:43:08.316Z,999.5
2019-04-25T08:44:20.587Z,999.5
2019-04-25T08:45:32.889Z,999.3
2019-04-25T08:46:44.967Z,999.5
2019-04-25T08:47:57.218Z,999.5
2019-04-25T08:49:09.292Z,999.4
2019-04-25T08:50:21.578Z,999.4
2019-04-25T08:51:34.417Z,999.5
2019-04-25T08:52:45.915Z,999.4
2019-04-25T08:53:58.065Z,999.6
2019-04-25T08:55:10.313Z,999.4
2019-04-25T08:56:30.101Z,999.5
2019-04-25T08:57:34.816Z,999.6
2019-04-25T08:58:46.849Z,999.5
2019-04-25T08:59:59.237Z,999.4
2019-04-25T09:01:11.479Z,999.5
2019-04-25T09:02:23.462Z,999.4
2019-04-25T09:03:37.177Z,999.4
2019-04-25T09:04:49.762Z,999.4
2019-04-25T09:06:00.093Z,999.3
2019-04-25T09:07:12.297Z,999.3
2019-04-25T09:08:24.644Z,999.4
2019-04-25T09:09:36.657Z,999.3
2019-04-25T09:10:48.847Z,999.3
2019-04-25T09:12:01.127Z,999.4
2019-04-25T09:13:15.130Z,999.3
2019-04-25T09:14:28.593Z,999.3
2019-04-25T09:15:42.226Z,999.4
2019-04-25T09:16:49.846Z,999.5
2019-04-25T09:18:02.059Z,999.4
2019-04-25T09:19:14.174Z,999.3
2019-04-25T09:20:26.895Z,999.3
2019-04-25T09:21:38.687Z,999.3
2019-04-25T09:22:50.753Z,999.3
2019-04-25T09:24:04.200Z,999.3
2019-04-25T09:25:15.136Z,999.5
2019-04-25T09:27:39.627Z,999.3
2019-04-25T09:28:51.789Z,999.2
2019-04-25T09:30:04.317Z,999.1
2019-04-25T09:31:16.228Z,999.3
2019-04-25T09:32:28.454Z,999.3
2019-04-25T09:33:40.498Z,999.2
2019-04-25T09:34:52.783Z,999.2
2019-04-25T09:36:05.032Z,999.2
2019-04-25T09:37:17.081Z,999.2
2019-04-25T09:38:29.286Z,999.1
2019-04-25T09:39:41.501Z,999.1
2019-04-25T09:40:53.701Z,999
2019-04-25T09:42:06.496Z,999
2019-04-25T09:43:18.214Z,999.1
2019-04-25T09:44:30.369Z,999.1
2019-04-25T09:45:44.241Z,999.1
2019-04-25T09:46:54.689Z,999
2019-04-25T09:48:06.953Z,999
2019-04-25T09:49:19.206Z,998.9
2019-04-25T09:50:31.231Z,999.2
2019-04-25T09:51:45.823Z,999
2019-04-25T09:52:55.744Z,998.9
2019-04-25T09:54:07.937Z,999
2019-04-25T09:55:20.100Z,999
2019-04-25T09:56:33.925Z,998.8
2019-04-25T09:57:44.544Z,998.8
2019-04-25T09:58:56.598Z,998.8
2019-04-25T10:00:08.893Z,998.9
2019-04-25T10:01:21.497Z,998.8
2019-04-25T10:02:33.222Z,998.9
2019-04-25T10:03:45.514Z,998.8
2019-04-25T10:04:57.910Z,998.9
2019-04-25T10:06:11.829Z,999
2019-04-25T10:07:21.996Z,998.9
2019-04-25T10:08:34.160Z,998.8
2019-04-25T10:09:46.352Z,998.9
2019-04-25T10:10:58.589Z,999
2019-04-25T10:12:10.821Z,998.8
2019-04-25T10:13:23.089Z,998.9
2019-04-25T10:14:35.499Z,998.8
2019-04-25T10:15:47.325Z,998.9
2019-04-25T10:16:59.514Z,999.2
2019-04-25T10:18:11.825Z,999.2
2019-04-25T10:19:24.238Z,998.8
2019-04-25T10:20:36.129Z,999.1
2019-04-25T10:21:48.305Z,999.3
2019-04-25T10:23:00.578Z,998.9
2019-04-25T10:24:12.860Z,999.1
2019-04-25T10:25:25.160Z,998.9
2019-04-25T10:26:38.651Z,999.5
2019-04-25T10:27:52.684Z,999.1
2019-04-25T10:29:01.487Z,999
2019-04-25T10:30:13.790Z,998.9
2019-04-25T10:31:25.950Z,999
2019-04-25T10:32:38.133Z,999
2019-04-25T10:33:51.846Z,999
2019-04-25T10:35:05.182Z,999.4
2019-04-25T10:36:18.662Z,998.9
2019-04-25T10:37:26.984Z,999.1
2019-04-25T10:38:39.213Z,998.8
2019-04-25T10:39:51.302Z,998.8
2019-04-25T10:41:03.492Z,998.8
2019-04-25T10:42:15.995Z,998.7
2019-04-25T10:43:27.905Z,998.6
2019-04-25T10:44:40.236Z,998.6
2019-04-25T10:45:52.199Z,998.6
2019-04-25T10:47:04.777Z,998.5
2019-04-25T10:48:16.790Z,998.5
2019-04-25T10:49:28.884Z,998.5
2019-04-25T10:50:40.987Z,998.6
2019-04-25T10:51:53.167Z,998.7
2019-04-25T10:53:05.900Z,998.7
2019-04-25T10:54:17.558Z,998.6
2019-04-25T10:55:29.976Z,998.6
2019-04-25T10:57:54.160Z,998.7
2019-04-25T10:59:06.369Z,998.7
2019-04-25T11:00:18.764Z,998.7
2019-04-25T11:01:30.755Z,998.8
2019-04-25T11:02:43.417Z,998.8
2019-04-25T11:03:55.259Z,998.9
2019-04-25T11:05:07.363Z,999.2
2019-04-25T11:06:19.533Z,998.6
2019-04-25T11:07:31.871Z,999
2019-04-25T11:08:44.157Z,999.2
2019-04-25T11:09:56.146Z,998.7
2019-04-25T11:11:08.445Z,998.9
2019-04-25T11:12:20.714Z,998.7
2019-04-25T11:13:32.763Z,998.7
2019-04-25T11:14:44.894Z,998.8
2019-04-25T11:15:57.101Z,998.6
2019-04-25T11:17:09.371Z,998.5
2019-04-25T11:18:21.530Z,998.5
2019-04-25T11:19:33.684Z,998.6
2019-04-25T11:20:50.829Z,999.1
2019-04-25T11:21:58.092Z,998.5
2019-04-25T11:23:10.250Z,998.6
2019-04-25T11:24:22.661Z,998.4
2019-04-25T11:25:36.844Z,998.6
2019-04-25T11:26:56.782Z,998.8
2019-04-25T11:28:01.706Z,998.8
2019-04-25T11:29:11.245Z,999.1
2019-04-25T11:30:23.431Z,999
2019-04-25T11:31:36.072Z,999.1
2019-04-25T11:32:47.974Z,998.9
2019-04-25T11:33:59.988Z,998.5
2019-04-25T11:35:12.527Z,998.4
2019-04-25T11:36:24.503Z,998.5
2019-04-25T11:37:36.696Z,998.5
2019-04-25T11:38:49.136Z,998.4
2019-04-25T11:40:01.007Z,998.4
2019-04-25T11:41:13.160Z,998.4
2019-04-25T11:42:25.437Z,998.2
2019-04-25T11:43:37.560Z,998.1
2019-04-25T11:44:49.821Z,998.2
2019-04-25T11:46:01.986Z,998.1
2019-04-25T11:47:14.377Z,998
2019-04-25T11:48:26.470Z,998.2
2019-04-25T11:49:38.578Z,998.1
2019-04-25T11:50:50.816Z,998.2
2019-04-25T11:52:02.930Z,998.2
2019-04-25T11:53:15.223Z,998
2019-04-25T11:54:27.528Z,998.1
2019-04-25T11:55:42.236Z,998
2019-04-25T11:56:54.272Z,998.1
2019-04-25T11:58:03.999Z,998
2019-04-25T11:59:16.157Z,998
2019-04-25T12:00:28.390Z,998
2019-04-25T12:01:40.579Z,998
2019-04-25T12:02:52.724Z,998.1
2019-04-25T12:04:04.907Z,998.1
2019-04-25T12:05:17.082Z,998.1
2019-04-25T12:06:29.304Z,997.9
2019-04-25T12:07:41.462Z,997.8
2019-04-25T12:08:53.782Z,997.9
2019-04-25T12:10:05.875Z,998.1
2019-04-25T12:11:21.495Z,997.9
2019-04-25T12:12:37.253Z,997.9
2019-04-25T12:13:42.510Z,997.8
2019-04-25T12:14:54.786Z,997.9
2019-04-25T12:16:06.857Z,997.8
2019-04-25T12:17:19.041Z,997.8
2019-04-25T12:18:32.116Z,997.9
2019-04-25T12:19:44.850Z,997.9
2019-04-25T12:20:55.665Z,997.8
2019-04-25T12:22:07.811Z,998
2019-04-25T12:23:20.089Z,997.9
2019-04-25T12:24:32.397Z,997.8
2019-04-25T12:25:45.608Z,998.1
2019-04-25T12:26:56.621Z,998
2019-04-25T12:28:08.851Z,997.9
2019-04-25T12:29:21.003Z,997.9
2019-04-25T12:30:33.243Z,997.9
2019-04-25T12:31:45.380Z,997.9
2019-04-25T12:32:57.698Z,997.8
2019-04-25T12:34:09.764Z,997.8
2019-04-25T12:35:22.005Z,997.8
2019-04-25T12:36:35.690Z,997.9
2019-04-25T12:37:48.457Z,997.8
2019-04-25T12:38:58.577Z,997.8
2019-04-25T12:40:10.785Z,997.7
2019-04-25T12:41:23.049Z,997.6
2019-04-25T12:42:35.315Z,997.7
2019-04-25T12:43:47.335Z,997.8
2019-04-25T12:44:59.539Z,997.8
2019-04-25T12:46:11.729Z,998
2019-04-25T12:47:24.448Z,997.7
2019-04-25T12:48:36.325Z,998
2019-04-25T12:49:48.335Z,997.9
2019-04-25T12:51:00.574Z,997.8
2019-04-25T12:52:12.704Z,998
2019-04-25T12:54:37.082Z,997.8
2019-04-25T12:55:50.833Z,997.7
2019-04-25T12:57:01.588Z,997.9
2019-04-25T12:58:13.832Z,997.8
2019-04-25T12:59:25.874Z,997.7
2019-04-25T13:00:38.253Z,997.9
2019-04-25T13:01:50.345Z,997.8
2019-04-25T13:03:02.470Z,998.1
2019-04-25T13:04:14.646Z,998
2019-04-25T13:05:26.947Z,997.9
2019-04-25T13:06:39.029Z,997.9
2019-04-25T13:07:51.381Z,997.9
2019-04-25T13:09:03.431Z,998.1
2019-04-25T13:10:15.811Z,997.9
2019-04-25T13:11:27.820Z,997.9
2019-04-25T13:12:40.106Z,998.1
2019-04-25T13:13:52.281Z,998
2019-04-25T13:15:04.596Z,998.1
2019-04-25T13:16:16.624Z,998
2019-04-25T13:17:28.824Z,998
2019-04-25T13:18:41.135Z,998
2019-04-25T13:19:53.180Z,998
2019-04-25T13:21:05.605Z,998
2019-04-25T13:22:17.614Z,997.9
2019-04-25T13:23:29.770Z,998
2019-04-25T13:24:42.059Z,998.2
2019-04-25T13:25:57.784Z,997.9
2019-04-25T13:27:06.366Z,997.9
2019-04-25T13:28:18.608Z,997.8
2019-04-25T13:29:30.765Z,997.8
2019-04-25T13:30:42.940Z,997.8
2019-04-25T13:31:55.151Z,997.8
2019-04-25T13:33:08.206Z,997.8
2019-04-25T13:34:19.516Z,997.7
2019-04-25T13:35:31.731Z,997.8
2019-04-25T13:36:44.013Z,997.8
2019-04-25T13:37:56.187Z,997.7
2019-04-25T13:39:08.322Z,997.7
2019-04-25T13:40:20.505Z,997.9
2019-04-25T13:41:32.893Z,997.7
2019-04-25T13:42:44.978Z,997.6
2019-04-25T13:43:57.079Z,997.5
2019-04-25T13:45:09.641Z,997.7
2019-04-25T13:46:21.539Z,997.5
2019-04-25T13:47:33.682Z,997.6
2019-04-25T13:48:46.158Z,997.5
2019-04-25T13:49:58.096Z,997.6
2019-04-25T13:51:10.591Z,997.6
2019-04-25T13:52:22.453Z,997.6
2019-04-25T13:53:34.651Z,997.6
2019-04-25T13:54:46.918Z,997.6
2019-04-25T13:55:59.522Z,997.6
2019-04-25T13:57:11.239Z,997.5
2019-04-25T13:58:23.457Z,997.6
2019-04-25T13:59:35.692Z,997.6
2019-04-25T14:00:50.204Z,997.6
2019-04-25T14:02:00.066Z,997.6
2019-04-25T14:03:12.212Z,997.6
2019-04-25T14:04:24.402Z,997.6
2019-04-25T14:05:36.847Z,997.6
2019-04-25T14:06:48.870Z,997.7
2019-04-25T14:08:00.977Z,997.6
2019-04-25T14:09:13.190Z,997.6
2019-04-25T14:10:25.374Z,997.5
2019-04-25T14:11:37.633Z,997.5
2019-04-25T14:12:49.855Z,997.6
2019-04-25T14:14:02.309Z,997.4
2019-04-25T14:15:16.781Z,997.4
2019-04-25T14:16:26.438Z,997.5
2019-04-25T14:17:38.547Z,997.5
2019-04-25T14:18:50.736Z,997.4
2019-04-25T14:20:02.956Z,997.5
2019-04-25T14:21:15.138Z,997.5
2019-04-25T14:22:27.422Z,997.4
2019-04-25T14:23:39.522Z,997.5
2019-04-25T14:24:51.907Z,997.4
2019-04-25T14:26:04.604Z,997.4
2019-04-25T14:27:27.913Z,997.3
2019-04-25T14:29:40.722Z,997.4
2019-04-25T14:30:52.745Z,997.4
2019-04-25T14:32:04.880Z,997.3
2019-04-25T14:33:17.173Z,997.3
2019-04-25T14:34:29.287Z,997.3
2019-04-25T14:35:41.486Z,997.4
2019-04-25T14:36:53.763Z,997.4
2019-04-25T14:38:05.860Z,997.3
2019-04-25T14:39:18.164Z,997.3
2019-04-25T14:40:30.354Z,997.3
2019-04-25T14:41:42.468Z,997.3
2019-04-25T14:42:54.743Z,997.3
2019-04-25T14:44:06.904Z,997.3
2019-04-25T14:45:19.030Z,997.3
2019-04-25T14:46:31.270Z,997.3
2019-04-25T14:47:43.510Z,997.3
2019-04-25T14:48:55.735Z,997.3
2019-04-25T14:50:07.809Z,997.3
2019-04-25T14:51:20.029Z,997.4
2019-04-25T14:52:32.536Z,997.4
2019-04-25T14:53:44.395Z,997.4
2019-04-25T14:54:56.596Z,997.4
2019-04-25T14:56:09.124Z,997.4
2019-04-25T14:57:21.017Z,997.3
2019-04-25T14:58:33.382Z,997.3
2019-04-25T14:59:45.377Z,997.4
2019-04-25T15:00:57.670Z,997.3
2019-04-25T15:02:09.761Z,997.3
2019-04-25T15:03:21.965Z,997.4
2019-04-25T15:04:34.291Z,997.4
2019-04-25T15:05:46.346Z,997.4
2019-04-25T15:06:58.565Z,997.4
2019-04-25T15:08:10.751Z,997.4
2019-04-25T15:09:23.125Z,997.4
2019-04-25T15:10:35.217Z,997.4
2019-04-25T15:11:47.387Z,997.3
2019-04-25T15:12:59.609Z,997.2
2019-04-25T15:14:11.780Z,997.2
2019-04-25T15:15:23.939Z,997.2
2019-04-25T15:16:36.156Z,997.2
2019-04-25T15:17:48.380Z,997.2
2019-04-25T15:19:00.538Z,997.2
2019-04-25T15:20:12.688Z,997.1
2019-04-25T15:21:24.980Z,997.2
2019-04-25T15:22:37.110Z,997.1
2019-04-25T15:23:49.414Z,997
2019-04-25T15:25:01.581Z,997
2019-04-25T15:26:13.840Z,996.9
2019-04-25T15:27:25.861Z,996.9
2019-04-25T15:28:38.081Z,997
2019-04-25T15:29:50.467Z,997
2019-04-25T15:31:02.693Z,997.1
2019-04-25T15:32:14.644Z,997.1
2019-04-25T15:33:26.842Z,997.2
2019-04-25T15:34:39.036Z,997.2
2019-04-25T15:35:51.317Z,997.3
2019-04-25T15:37:03.651Z,997.4
2019-04-25T15:38:15.621Z,997.3
2019-04-25T15:39:27.816Z,997.3
2019-04-25T15:40:40.018Z,997.3
2019-04-25T15:41:52.224Z,997.3
2019-04-25T15:43:04.399Z,997.3
2019-04-25T15:44:16.712Z,997.3
2019-04-25T15:45:28.792Z,997.4
2019-04-25T15:46:41.241Z,997.4
2019-04-25T15:47:53.183Z,997.4
2019-04-25T15:49:05.502Z,997.4
2019-04-25T15:50:19.887Z,997.4